createdAt,value
2019-04-29T00:01:19.505Z,2.20
2019-04-29T00:03:48.217Z,2.30
2019-04-29T00:06:17.045Z,2.30
2019-04-29T00:08:45.849Z,2.20
2019-04-29T00:11:14.723Z,2.50
2019-04-29T00:13:43.441Z,2.60
2019-04-29T00:16:19.836Z,2.20
2019-04-29T00:19:08.188Z,2.10
2019-04-29T00:21:37.044Z,2.07
2019-04-29T00:24:05.949Z,2.03
2019-04-29T00:26:34.656Z,2.40
2019-04-29T00:29:03.497Z,2.40
2019-04-29T00:31:32.203Z,2.20
2019-04-29T00:34:00.926Z,2.33
2019-04-29T00:36:31.729Z,2.27
2019-04-29T00:39:18.521Z,2.30
2019-04-29T00:41:51.881Z,2.73
2019-04-29T00:44:20.686Z,2.70
2019-04-29T00:46:49.423Z,2.30
2019-04-29T00:49:18.122Z,2.30
2019-04-29T00:51:46.861Z,2.50
2019-04-29T00:54:17.131Z,2.67
2019-04-29T00:56:45.835Z,2.63
2019-04-29T00:59:14.550Z,2.87
2019-04-29T01:01:43.448Z,3.00
2019-04-29T01:04:12.201Z,2.50
2019-04-29T01:06:40.910Z,2.67
2019-04-29T01:09:12.709Z,2.77
2019-04-29T01:11:41.428Z,2.77
2019-04-29T01:14:10.334Z,2.53
2019-04-29T01:16:39.093Z,2.90
2019-04-29T01:19:07.796Z,2.80
2019-04-29T01:21:36.496Z,2.67
2019-04-29T01:24:05.416Z,2.63
2019-04-29T01:26:38.388Z,2.50
2019-04-29T01:29:08.667Z,2.77
2019-04-29T01:31:37.372Z,2.73
2019-04-29T01:34:10.483Z,3.10
2019-04-29T01:36:40.755Z,3.37
2019-04-29T01:39:11.367Z,3.10
2019-04-29T01:41:44.381Z,2.67
2019-04-29T01:44:14.652Z,2.70
2019-04-29T01:46:43.390Z,2.73
2019-04-29T01:49:12.090Z,2.60
2019-04-29T01:51:40.798Z,2.80
2019-04-29T01:54:09.543Z,2.87
2019-04-29T01:56:38.253Z,2.80
2019-04-29T01:59:06.960Z,2.87
2019-04-29T02:01:35.723Z,2.87
2019-04-29T02:04:04.831Z,2.70
2019-04-29T02:06:33.529Z,2.90
2019-04-29T02:09:02.310Z,2.50
2019-04-29T02:11:31.027Z,2.63
2019-04-29T02:13:59.773Z,2.60
2019-04-29T02:16:28.478Z,2.60
2019-04-29T02:18:57.172Z,2.57
2019-04-29T02:21:25.885Z,2.50
2019-04-29T02:24:08.174Z,2.80
2019-04-29T02:26:36.881Z,2.80
2019-04-29T02:29:05.582Z,4.70
2019-04-29T02:31:41.748Z,3.77
2019-04-29T02:34:10.461Z,3.63
2019-04-29T02:36:39.164Z,3.50
2019-04-29T02:39:25.545Z,3.33
2019-04-29T02:42:12.233Z,3.33
2019-04-29T02:44:40.982Z,3.20
2019-04-29T02:47:09.681Z,3.20
2019-04-29T02:49:38.391Z,3.13
2019-04-29T02:52:07.159Z,3.60
2019-04-29T02:54:35.867Z,3.77
2019-04-29T02:57:06.254Z,3.90
2019-04-29T02:59:36.574Z,4.10
2019-04-29T03:02:15.852Z,4.43
2019-04-29T03:04:51.954Z,4.27
2019-04-29T03:07:21.755Z,3.93
2019-04-29T03:09:50.508Z,5.00
2019-04-29T03:12:19.213Z,3.47
2019-04-29T03:14:47.917Z,2.60
2019-04-29T03:17:18.880Z,2.80
2019-04-29T03:20:05.304Z,2.87
2019-04-29T03:22:34.169Z,3.20
2019-04-29T03:25:02.875Z,2.87
2019-04-29T03:27:31.598Z,2.70
2019-04-29T03:30:00.418Z,3.00
2019-04-29T03:32:29.107Z,3.00
2019-04-29T03:34:57.887Z,3.10
2019-04-29T03:37:26.570Z,3.40
2019-04-29T03:39:55.275Z,3.20
2019-04-29T03:42:24.021Z,3.07
2019-04-29T03:44:52.730Z,3.17
2019-04-29T03:47:21.430Z,3.20
2019-04-29T03:49:50.140Z,3.20
2019-04-29T03:52:18.843Z,3.27
2019-04-29T03:54:47.581Z,3.50
2019-04-29T03:57:17.587Z,4.83
2019-04-29T03:59:46.298Z,4.27
2019-04-29T04:02:19.896Z,4.30
2019-04-29T04:04:56.147Z,4.13
2019-04-29T04:07:42.819Z,4.10
2019-04-29T04:10:11.909Z,3.60
2019-04-29T04:12:40.606Z,3.60
2019-04-29T04:15:09.467Z,3.40
2019-04-29T04:17:42.698Z,4.10
2019-04-29T04:20:11.504Z,3.90
2019-04-29T04:22:47.441Z,4.70
2019-04-29T04:25:17.525Z,4.40
2019-04-29T04:27:47.914Z,3.27
2019-04-29T04:30:17.921Z,3.93
2019-04-29T04:32:46.759Z,2.70
2019-04-29T04:35:15.602Z,3.43
2019-04-29T04:37:44.308Z,3.53
2019-04-29T04:40:33.164Z,3.90
2019-04-29T04:43:01.907Z,3.17
2019-04-29T04:45:30.577Z,3.50
2019-04-29T04:47:59.300Z,3.63
2019-04-29T04:50:28.001Z,3.60
2019-04-29T04:52:56.704Z,3.30
2019-04-29T04:55:27.035Z,3.20
2019-04-29T04:57:55.732Z,3.30
2019-04-29T05:00:26.014Z,3.30
2019-04-29T05:02:54.778Z,7.17
2019-04-29T05:05:23.492Z,7.57
2019-04-29T05:07:52.190Z,7.20
2019-04-29T05:10:20.964Z,9.70
2019-04-29T05:12:49.670Z,7.23
2019-04-29T05:15:18.478Z,7.60
2019-04-29T05:17:47.194Z,7.90
2019-04-29T05:20:15.907Z,8.80
2019-04-29T05:22:46.222Z,9.10
2019-04-29T05:25:14.938Z,11.13
2019-04-29T05:27:43.664Z,19.40
2019-04-29T05:30:12.598Z,22.60
2019-04-29T05:32:41.321Z,12.20
2019-04-29T05:35:15.633Z,24.67
2019-04-29T05:37:56.764Z,8.20
2019-04-29T05:40:42.062Z,8.83
2019-04-29T05:43:12.403Z,15.63
2019-04-29T05:45:46.190Z,7.87
2019-04-29T05:48:17.797Z,8.77
2019-04-29T05:50:52.077Z,7.20
2019-04-29T05:53:20.078Z,7.13
2019-04-29T05:55:48.792Z,6.40
2019-04-29T05:58:17.540Z,6.70
2019-04-29T06:00:50.766Z,7.27
2019-04-29T06:03:19.474Z,6.23
2019-04-29T06:05:48.241Z,6.43
2019-04-29T06:08:16.946Z,6.53
2019-04-29T06:10:45.654Z,6.03
2019-04-29T06:13:14.369Z,5.93
2019-04-29T06:15:43.224Z,6.20
2019-04-29T06:18:11.968Z,5.97
2019-04-29T06:20:40.676Z,5.43
2019-04-29T06:23:09.379Z,5.13
2019-04-29T06:25:38.128Z,5.23
2019-04-29T06:28:06.833Z,4.30
2019-04-29T06:30:38.705Z,4.63
2019-04-29T06:33:06.008Z,4.60
2019-04-29T06:35:34.712Z,4.50
2019-04-29T06:38:03.424Z,4.10
2019-04-29T06:40:35.434Z,4.40
2019-04-29T06:43:02.619Z,4.50
2019-04-29T06:45:31.322Z,4.73
2019-04-29T06:48:00.035Z,5.20
2019-04-29T06:50:28.737Z,5.80
2019-04-29T06:52:57.491Z,5.03
2019-04-29T06:55:26.197Z,5.30
2019-04-29T06:57:54.905Z,6.27
2019-04-29T07:00:24.015Z,6.80
2019-04-29T07:02:52.919Z,6.73
2019-04-29T07:05:21.671Z,7.10
2019-04-29T07:07:50.381Z,7.40
2019-04-29T07:10:21.684Z,6.33
2019-04-29T07:12:49.565Z,7.10
2019-04-29T07:15:18.269Z,6.60
2019-04-29T07:17:46.972Z,5.90
2019-04-29T07:20:15.786Z,5.30
2019-04-29T07:22:44.487Z,6.10
2019-04-29T07:25:13.247Z,5.50
2019-04-29T07:27:44.196Z,6.00
2019-04-29T07:30:12.591Z,5.30
2019-04-29T07:32:41.984Z,6.20
2019-04-29T07:35:12.832Z,5.73
2019-04-29T07:37:41.581Z,5.10
2019-04-29T07:40:11.509Z,4.73
2019-04-29T07:42:40.194Z,5.27
2019-04-29T07:45:23.774Z,4.97
2019-04-29T07:47:56.606Z,5.03
2019-04-29T07:50:26.633Z,5.30
2019-04-29T07:52:55.577Z,5.50
2019-04-29T07:55:25.945Z,5.27
2019-04-29T07:57:54.764Z,5.10
2019-04-29T08:00:32.285Z,5.10
2019-04-29T08:03:01.692Z,5.10
2019-04-29T08:05:30.803Z,5.30
2019-04-29T08:08:00.952Z,5.60
2019-04-29T08:10:29.917Z,5.47
2019-04-29T08:12:59.915Z,4.83
2019-04-29T08:15:31.755Z,4.67
2019-04-29T08:18:06.353Z,4.93
2019-04-29T08:20:29.560Z,5.50
2019-04-29T08:22:58.553Z,5.47
2019-04-29T08:25:28.692Z,5.83
2019-04-29T08:27:57.435Z,5.40
2019-04-29T08:30:26.142Z,5.27
2019-04-29T08:32:54.854Z,5.80
2019-04-29T08:35:23.613Z,5.37
2019-04-29T08:37:52.312Z,5.30
2019-04-29T08:40:21.018Z,5.00
2019-04-29T08:43:03.562Z,5.43
2019-04-29T08:45:38.978Z,5.50
2019-04-29T08:48:07.264Z,5.20
2019-04-29T08:50:35.970Z,5.23
2019-04-29T08:53:05.325Z,4.97
2019-04-29T08:55:36.509Z,5.47
2019-04-29T08:58:06.976Z,5.90
2019-04-29T09:00:35.098Z,6.23
2019-04-29T09:03:03.836Z,6.07
2019-04-29T09:05:32.599Z,6.40
2019-04-29T09:08:01.306Z,6.07
2019-04-29T09:10:33.108Z,6.10
2019-04-29T09:13:00.488Z,6.60
2019-04-29T09:15:29.207Z,6.50
2019-04-29T09:17:58.076Z,6.13
2019-04-29T09:20:26.781Z,7.80
2019-04-29T09:22:57.060Z,6.70
2019-04-29T09:25:28.178Z,6.77
2019-04-29T09:27:58.512Z,5.77
2019-04-29T09:30:27.233Z,7.80
2019-04-29T09:32:55.949Z,7.80
2019-04-29T09:35:24.665Z,7.43
2019-04-29T09:37:58.303Z,7.90
2019-04-29T09:40:25.820Z,7.73
2019-04-29T09:42:59.080Z,7.10
2019-04-29T09:45:29.362Z,7.07
2019-04-29T09:47:58.076Z,6.47
2019-04-29T09:50:28.495Z,7.07
2019-04-29T09:52:57.421Z,7.10
2019-04-29T09:55:26.272Z,7.37
2019-04-29T09:57:54.984Z,7.13
2019-04-29T10:00:41.963Z,6.13
2019-04-29T10:03:27.699Z,7.40
2019-04-29T10:06:03.738Z,7.10
2019-04-29T10:08:32.443Z,7.37
2019-04-29T10:11:01.190Z,7.80
2019-04-29T10:13:29.902Z,7.80
2019-04-29T10:16:12.542Z,8.10
2019-04-29T10:18:42.821Z,7.90
2019-04-29T10:21:16.544Z,7.10
2019-04-29T10:23:43.593Z,7.37
2019-04-29T10:26:12.304Z,7.73
2019-04-29T10:28:51.389Z,7.30
2019-04-29T10:31:20.930Z,6.37
2019-04-29T10:33:50.317Z,6.53
2019-04-29T10:36:20.553Z,6.33
2019-04-29T10:38:52.046Z,6.57
2019-04-29T10:41:35.937Z,6.13
2019-04-29T10:44:19.258Z,6.37
2019-04-29T10:46:49.587Z,6.40
2019-04-29T10:49:28.826Z,6.20
2019-04-29T10:51:58.022Z,6.40
2019-04-29T10:54:28.638Z,6.73
2019-04-29T10:56:57.452Z,7.37
2019-04-29T10:59:35.670Z,6.90
2019-04-29T11:02:18.794Z,6.10
2019-04-29T11:04:49.117Z,5.93
2019-04-29T11:07:26.373Z,5.80
2019-04-29T11:09:52.636Z,5.83
2019-04-29T11:12:21.500Z,7.27
2019-04-29T11:14:50.204Z,5.80
2019-04-29T11:17:22.128Z,6.23
2019-04-29T11:19:50.829Z,6.10
2019-04-29T11:22:21.106Z,5.97
2019-04-29T11:24:51.391Z,4.67
2019-04-29T11:27:21.672Z,5.53
2019-04-29T11:29:50.386Z,4.47
2019-04-29T11:32:24.814Z,5.23
2019-04-29T11:35:00.936Z,4.63
2019-04-29T11:37:29.938Z,5.07
2019-04-29T11:39:58.693Z,4.97
2019-04-29T11:42:27.502Z,5.10
2019-04-29T11:44:57.141Z,5.20
2019-04-29T11:47:26.652Z,5.63
2019-04-29T11:49:56.935Z,5.70
2019-04-29T11:52:28.062Z,5.30
2019-04-29T11:54:56.273Z,5.90
2019-04-29T11:57:40.344Z,5.90
2019-04-29T12:00:10.121Z,5.60
2019-04-29T12:02:48.671Z,6.13
2019-04-29T12:05:21.950Z,5.97
2019-04-29T12:07:50.761Z,5.57
2019-04-29T12:10:19.473Z,5.40
2019-04-29T12:12:49.091Z,5.33
2019-04-29T12:15:35.686Z,5.40
2019-04-29T12:18:05.968Z,4.97
2019-04-29T12:20:39.332Z,5.00
2019-04-29T12:23:11.049Z,5.10
2019-04-29T12:25:38.499Z,5.20
2019-04-29T12:28:18.868Z,5.17
2019-04-29T12:30:45.288Z,5.17
2019-04-29T12:33:15.580Z,5.90
2019-04-29T12:35:51.978Z,5.57
2019-04-29T12:38:24.127Z,5.23
2019-04-29T12:40:57.710Z,5.77
2019-04-29T12:43:48.656Z,5.60
2019-04-29T12:46:18.316Z,5.50
2019-04-29T12:48:47.040Z,5.80
2019-04-29T12:51:17.107Z,5.40
2019-04-29T12:53:45.981Z,6.17
2019-04-29T12:56:16.261Z,5.83
2019-04-29T12:58:50.236Z,6.00
2019-04-29T13:01:16.990Z,5.93
2019-04-29T13:03:47.271Z,6.10
2019-04-29T13:06:24.357Z,6.63
2019-04-29T13:08:55.340Z,6.20
2019-04-29T13:11:35.959Z,6.30
2019-04-29T13:13:56.579Z,6.00
2019-04-29T13:16:30.003Z,6.03
2019-04-29T13:19:11.883Z,6.20
2019-04-29T13:21:39.848Z,5.60
2019-04-29T13:24:18.225Z,5.93
2019-04-29T13:26:42.431Z,5.87
2019-04-29T13:29:09.468Z,6.40
2019-04-29T13:31:39.141Z,6.40
2019-04-29T13:34:23.622Z,6.37
2019-04-29T13:36:40.300Z,5.63
2019-04-29T13:39:09.412Z,6.17
2019-04-29T13:41:56.226Z,5.43
2019-04-29T13:44:08.608Z,5.90
2019-04-29T13:46:46.227Z,5.90
2019-04-29T13:49:32.404Z,5.57
2019-04-29T13:52:02.722Z,6.30
2019-04-29T13:54:31.403Z,7.20
2019-04-29T13:57:07.574Z,5.80
2019-04-29T13:59:32.228Z,6.53
2019-04-29T14:02:08.257Z,6.20
2019-04-29T14:04:38.531Z,6.67
2019-04-29T14:07:07.253Z,6.63
2019-04-29T14:09:39.172Z,6.07
2019-04-29T14:12:46.289Z,6.43
2019-04-29T14:14:37.274Z,5.77
2019-04-29T14:17:24.935Z,5.80
2019-04-29T14:19:42.477Z,6.47
2019-04-29T14:22:21.440Z,6.10
2019-04-29T14:24:38.661Z,6.50
2019-04-29T14:27:07.477Z,6.80
2019-04-29T14:29:36.176Z,6.40
2019-04-29T14:32:05.003Z,5.80
2019-04-29T14:34:51.731Z,6.03
2019-04-29T14:37:25.014Z,5.83
2019-04-29T14:39:50.893Z,6.13
2019-04-29T14:42:25.672Z,5.80
2019-04-29T14:45:10.851Z,6.00
2019-04-29T14:47:46.935Z,6.17
2019-04-29T14:50:20.174Z,5.70
2019-04-29T14:52:49.476Z,6.10
2019-04-29T14:55:20.183Z,5.47
2019-04-29T14:57:47.063Z,6.13
2019-04-29T15:00:20.589Z,5.90
2019-04-29T15:02:49.441Z,5.70
2019-04-29T15:05:18.201Z,6.13
2019-04-29T15:07:47.051Z,5.60
2019-04-29T15:10:15.906Z,6.03
2019-04-29T15:13:19.614Z,5.90
2019-04-29T15:15:34.240Z,5.60
2019-04-29T15:18:15.596Z,6.03
2019-04-29T15:20:49.509Z,6.13
2019-04-29T15:23:28.412Z,6.20
2019-04-29T15:25:48.700Z,5.90
2019-04-29T15:28:19.033Z,5.60
2019-04-29T15:30:47.807Z,5.67
2019-04-29T15:33:16.511Z,5.70
2019-04-29T15:35:45.261Z,6.40
2019-04-29T15:38:13.969Z,5.77
2019-04-29T15:40:43.368Z,6.00
2019-04-29T15:43:12.475Z,5.87
2019-04-29T15:45:41.369Z,7.63
2019-04-29T15:48:10.124Z,6.30
2019-04-29T15:50:39.105Z,6.20
2019-04-29T15:53:07.816Z,6.53
2019-04-29T15:55:39.484Z,8.90
2019-04-29T15:58:07.273Z,11.70
2019-04-29T16:00:39.796Z,7.50
2019-04-29T16:03:06.651Z,7.40
2019-04-29T16:06:04.389Z,7.07
2019-04-29T16:08:29.283Z,8.50
2019-04-29T16:10:59.566Z,7.97
2019-04-29T16:13:29.462Z,7.70
2019-04-29T16:15:58.270Z,6.97
2019-04-29T16:18:26.988Z,7.00
2019-04-29T16:20:55.702Z,7.27
2019-04-29T16:23:24.457Z,6.40
2019-04-29T16:25:54.520Z,6.30
2019-04-29T16:30:53.801Z,6.10
2019-04-29T16:33:22.595Z,7.57
2019-04-29T16:35:51.436Z,7.60
2019-04-29T16:38:20.350Z,8.73
2019-04-29T16:40:57.210Z,7.67
2019-04-29T16:43:31.404Z,9.00
2019-04-29T16:46:13.588Z,8.60
2019-04-29T16:48:42.338Z,7.80
2019-04-29T16:51:13.928Z,8.53
2019-04-29T16:53:41.486Z,7.50
2019-04-29T16:56:16.113Z,7.40
2019-04-29T16:58:40.628Z,6.97
2019-04-29T17:01:09.521Z,8.67
2019-04-29T17:03:38.223Z,9.57
2019-04-29T17:06:06.942Z,8.50
2019-04-29T17:08:40.369Z,9.97
2019-04-29T17:11:17.465Z,8.70
2019-04-29T17:13:47.004Z,8.90
2019-04-29T17:16:17.290Z,9.40
2019-04-29T17:18:46.045Z,9.83
2019-04-29T17:21:14.941Z,11.60
2019-04-29T17:23:43.651Z,12.13
2019-04-29T17:26:12.381Z,13.07
2019-04-29T17:28:42.672Z,10.03
2019-04-29T17:31:29.590Z,11.27
2019-04-29T17:34:12.148Z,10.87
2019-04-29T17:35:17.976Z,6.90
2019-04-29T17:36:41.178Z,10.80
2019-04-29T17:39:09.948Z,10.33
2019-04-29T17:41:38.703Z,10.73
2019-04-29T17:44:27.004Z,11.40
2019-04-29T17:47:07.129Z,9.80
2019-04-29T17:49:36.514Z,10.53
2019-04-29T17:52:06.926Z,11.00
2019-04-29T17:54:39.908Z,10.30
2019-04-29T17:57:26.567Z,10.27
2019-04-29T18:00:00.453Z,11.33
2019-04-29T18:02:35.320Z,9.50
2019-04-29T18:05:16.878Z,13.27
2019-04-29T18:08:02.366Z,10.80
2019-04-29T18:10:32.757Z,11.07
2019-04-29T18:13:01.477Z,10.20
2019-04-29T18:15:47.080Z,10.77
2019-04-29T18:18:07.377Z,13.40
2019-04-29T18:20:35.771Z,11.93
2019-04-29T18:23:15.834Z,11.90
2019-04-29T18:25:46.978Z,11.73
2019-04-29T18:28:16.287Z,10.70
2019-04-29T18:30:45.105Z,10.03
2019-04-29T18:33:15.212Z,8.17
2019-04-29T18:35:44.308Z,9.87
2019-04-29T18:38:13.396Z,9.50
2019-04-29T18:40:44.266Z,8.97
2019-04-29T18:43:12.639Z,9.37
2019-04-29T18:45:52.817Z,9.00
2019-04-29T18:48:17.038Z,10.53
2019-04-29T18:50:42.375Z,15.33
2019-04-29T18:53:11.086Z,12.00
2019-04-29T18:55:39.807Z,9.63
2019-04-29T18:58:08.537Z,7.50
2019-04-29T19:00:37.267Z,8.60
2019-04-29T19:03:06.630Z,11.00
2019-04-29T19:05:42.853Z,12.10
2019-04-29T19:08:14.764Z,14.40
2019-04-29T19:10:42.140Z,11.30
2019-04-29T19:13:13.140Z,9.27
2019-04-29T19:15:46.991Z,12.00
2019-04-29T19:18:12.483Z,13.40
2019-04-29T19:20:46.112Z,10.53
2019-04-29T19:23:16.189Z,11.30
2019-04-29T19:25:46.480Z,7.67
2019-04-29T19:28:18.878Z,7.30
2019-04-29T19:30:45.130Z,5.60
2019-04-29T19:33:15.131Z,5.73
2019-04-29T19:35:45.190Z,5.50
2019-04-29T19:38:15.672Z,5.60
2019-04-29T19:40:44.380Z,5.70
2019-04-29T19:43:17.257Z,5.57
2019-04-29T19:45:44.736Z,6.40
2019-04-29T19:48:15.981Z,6.07
2019-04-29T19:50:45.226Z,8.80
2019-04-29T19:53:14.825Z,9.20
2019-04-29T19:55:45.695Z,5.90
2019-04-29T19:58:14.940Z,7.00
2019-04-29T20:00:46.659Z,7.87
2019-04-29T20:03:21.241Z,7.60
2019-04-29T20:05:49.837Z,7.20
2019-04-29T20:08:37.656Z,5.37
2019-04-29T20:10:51.518Z,9.97
2019-04-29T20:13:20.423Z,8.17
2019-04-29T20:16:12.699Z,8.33
2019-04-29T20:19:00.945Z,7.60
2019-04-29T20:21:28.136Z,6.67
2019-04-29T20:23:53.377Z,10.57
2019-04-29T20:26:28.655Z,9.97
2019-04-29T20:28:55.523Z,7.20
2019-04-29T20:31:23.384Z,9.67
2019-04-29T20:33:53.004Z,6.57
2019-04-29T20:36:33.291Z,7.27
2019-04-29T20:38:52.311Z,6.70
2019-04-29T20:41:39.385Z,9.37
2019-04-29T20:43:51.793Z,8.30
2019-04-29T20:46:20.715Z,10.10
2019-04-29T20:48:50.523Z,8.90
2019-04-29T20:51:23.300Z,7.97
2019-04-29T20:53:56.088Z,9.03
2019-04-29T20:56:28.858Z,7.17
2019-04-29T20:58:55.426Z,5.77
2019-04-29T21:01:26.006Z,5.47
2019-04-29T21:03:56.753Z,7.73
2019-04-29T21:06:25.180Z,8.40
2019-04-29T21:08:55.147Z,7.77
2019-04-29T21:11:25.810Z,6.60
2019-04-29T21:14:02.047Z,6.87
2019-04-29T21:16:35.351Z,7.23
2019-04-29T21:19:08.477Z,5.87
2019-04-29T21:21:41.702Z,6.20
2019-04-29T21:24:13.918Z,6.50
2019-04-29T21:26:44.305Z,7.00
2019-04-29T21:29:10.738Z,5.90
2019-04-29T21:31:38.657Z,5.97
2019-04-29T21:34:07.369Z,6.03
2019-04-29T21:36:45.253Z,5.60
2019-04-29T21:39:32.344Z,5.50
2019-04-29T21:42:06.891Z,5.47
2019-04-29T21:44:35.605Z,5.73
2019-04-29T21:47:08.020Z,6.50
2019-04-29T21:49:44.973Z,6.70
2019-04-29T21:52:05.837Z,6.63
2019-04-29T21:54:34.528Z,7.70
2019-04-29T21:57:03.296Z,6.00
2019-04-29T21:59:32.006Z,6.77
2019-04-29T22:02:00.709Z,6.47
2019-04-29T22:04:32.755Z,6.40
2019-04-29T22:07:04.741Z,5.83
2019-04-29T22:09:36.029Z,6.70
2019-04-29T22:12:01.051Z,5.50
2019-04-29T22:14:29.764Z,6.60
2019-04-29T22:16:58.517Z,5.90
2019-04-29T22:19:28.206Z,6.17
2019-04-29T22:21:59.771Z,6.10
2019-04-29T22:24:27.674Z,5.90
2019-04-29T22:27:04.158Z,6.80
2019-04-29T22:29:26.926Z,6.87
2019-04-29T22:31:56.020Z,6.40
2019-04-29T22:34:25.321Z,6.70
2019-04-29T22:36:58.261Z,7.80
2019-04-29T22:39:26.741Z,6.17
2019-04-29T22:41:56.586Z,5.80
2019-04-29T22:44:26.394Z,6.30
2019-04-29T22:46:55.536Z,6.43
2019-04-29T22:49:29.063Z,6.13
2019-04-29T22:51:57.111Z,6.60
2019-04-29T22:54:25.163Z,6.50
2019-04-29T22:56:56.501Z,6.00
2019-04-29T22:59:25.367Z,6.43
2019-04-29T23:01:55.655Z,6.37
2019-04-29T23:04:24.942Z,7.80
2019-04-29T23:06:53.720Z,6.53
2019-04-29T23:09:22.431Z,6.60
2019-04-29T23:11:51.176Z,6.70
2019-04-29T23:14:19.886Z,6.87
2019-04-29T23:16:48.593Z,6.57
2019-04-29T23:19:18.709Z,6.43
2019-04-29T23:21:57.805Z,7.17
2019-04-29T23:24:28.090Z,7.07
2019-04-29T23:26:56.790Z,6.80
2019-04-29T23:29:25.574Z,7.20
2019-04-29T23:31:55.376Z,6.90
2019-04-29T23:34:25.854Z,7.47
2019-04-29T23:36:54.698Z,7.33
2019-04-29T23:39:24.881Z,6.93
2019-04-29T23:41:55.359Z,7.60
2019-04-29T23:44:24.188Z,7.20
2019-04-29T23:46:52.906Z,7.07
2019-04-29T23:49:21.660Z,6.47
2019-04-29T23:51:50.366Z,7.10
2019-04-29T23:54:19.075Z,7.23
2019-04-29T23:57:01.650Z,7.20
2019-04-29T23:59:54.544Z,7.20
